Time;durP1;ratioP1;P1;durP2;ratioP2;P2;SDS_P1;SDS_P2;PMS_P1;PMS_P2;Temp;Humidity;BMP_temperature;BMP_pressure;BME280_temperature;BME280_humidity;BME280_pressure;Samples;Min_cycle;Max_cycle;Signal;HPM_P1;HPM_P2
2022/12/10 00:00:40;;;;;;;52.28;26.52;;;-2.30;99.90;;;;;;5017534;28;20084;-34
2022/12/10 00:03:06;;;;;;;52.47;26.05;;;-2.30;99.90;;;;;;4999299;28;20552;-34
2022/12/10 00:05:35;;;;;;;58.47;27.10;;;-2.40;99.90;;;;;;5024830;28;20041;-34
2022/12/10 00:08:01;;;;;;;54.15;25.95;;;-2.40;99.90;;;;;;5026032;28;20033;-34
2022/12/10 00:10:27;;;;;;;56.17;28.00;;;-2.50;99.90;;;;;;5022496;28;20052;-34
2022/12/10 00:12:53;;;;;;;56.60;28.80;;;-2.50;99.90;;;;;;5024788;28;20092;-35
2022/12/10 00:15:19;;;;;;;54.00;28.58;;;-2.50;99.90;;;;;;4991851;28;20030;-34
2022/12/10 00:17:44;;;;;;;57.80;28.88;;;-2.50;99.90;;;;;;5028692;28;20116;-34
2022/12/10 00:20:10;;;;;;;58.28;29.08;;;-2.60;99.90;;;;;;5004418;28;20041;-34
2022/12/10 00:22:36;;;;;;;59.83;29.80;;;-2.50;99.90;;;;;;5003339;28;20065;-33
2022/12/10 00:25:02;;;;;;;60.45;29.45;;;-2.60;99.90;;;;;;5018570;28;20061;-33
2022/12/10 00:27:28;;;;;;;55.22;28.58;;;-2.60;99.90;;;;;;5009512;28;20033;-34
2022/12/10 00:29:53;;;;;;;60.33;29.23;;;-2.50;99.90;;;;;;5027612;28;20430;-34
2022/12/10 00:32:19;;;;;;;65.20;30.42;;;-2.50;99.90;;;;;;5002339;28;20539;-34
2022/12/10 00:34:45;;;;;;;58.97;28.85;;;-2.50;99.90;;;;;;4989693;28;20038;-33
2022/12/10 00:37:11;;;;;;;57.20;27.67;;;-2.40;99.90;;;;;;5019687;28;20030;-34
2022/12/10 00:39:36;;;;;;;72.18;30.33;;;-2.40;99.90;;;;;;5015948;28;20117;-34
2022/12/10 00:42:02;;;;;;;68.10;34.08;;;-2.30;99.90;;;;;;5020744;28;20452;-34
2022/12/10 00:44:28;;;;;;;70.43;32.40;;;-2.20;99.90;;;;;;5008892;28;20030;-34
2022/12/10 00:46:54;;;;;;;61.47;29.63;;;-2.10;99.90;;;;;;5019996;28;20060;-34
2022/12/10 00:49:22;;;;;;;72.35;32.88;;;-2.00;99.90;;;;;;5009640;28;20486;-34
2022/12/10 00:51:48;;;;;;;72.65;32.40;;;-1.90;99.90;;;;;;5020349;28;20039;-34
2022/12/10 00:54:14;;;;;;;71.25;33.88;;;-1.90;99.90;;;;;;5008398;28;20038;-34
2022/12/10 00:56:40;;;;;;;68.50;30.65;;;-1.80;99.90;;;;;;5018342;28;20034;-34
2022/12/10 00:59:06;;;;;;;68.25;31.48;;;-1.80;99.90;;;;;;5026783;28;20045;-37
2022/12/10 01:01:40;;;;;;;72.60;31.90;;;-1.70;99.90;;;;;;5020670;28;20034;-34
2022/12/10 01:04:13;;;;;;;70.40;32.25;;;-1.70;99.90;;;;;;5000241;28;20042;-34
2022/12/10 01:06:47;;;;;;;65.47;31.55;;;-1.60;99.90;;;;;;5013387;28;20045;-34
2022/12/10 01:09:16;;;;;;;69.15;33.15;;;-1.60;99.90;;;;;;5021500;28;20034;-34
2022/12/10 01:11:44;;;;;;;65.32;31.35;;;-1.60;99.90;;;;;;5022354;28;20419;-35
2022/12/10 01:14:13;;;;;;;63.25;31.75;;;-1.60;99.90;;;;;;5002745;28;20031;-34
2022/12/10 01:16:39;;;;;;;72.05;31.45;;;-1.50;99.90;;;;;;5024445;28;20096;-35
2022/12/10 01:19:05;;;;;;;67.00;32.28;;;-1.50;99.90;;;;;;5002464;28;20519;-35
2022/12/10 01:21:31;;;;;;;62.70;30.10;;;-1.50;99.90;;;;;;5013315;28;20050;-34
2022/12/10 01:23:57;;;;;;;67.45;29.70;;;-1.40;99.90;;;;;;5021518;28;20026;-35
2022/12/10 01:26:26;;;;;;;66.25;30.30;;;-1.40;99.90;;;;;;5004848;28;20034;-34
2022/12/10 01:28:54;;;;;;;59.67;30.42;;;-1.40;99.90;;;;;;5025878;28;20115;-34
2022/12/10 01:31:26;;;;;;;64.00;30.63;;;-1.40;99.90;;;;;;5005029;28;20038;-34
2022/12/10 01:33:52;;;;;;;71.15;33.65;;;-1.40;99.90;;;;;;5026359;28;20553;-34
2022/12/10 01:36:33;;;;;;;62.92;32.17;;;-1.30;99.90;;;;;;4998869;28;20037;-34
2022/12/10 01:39:00;;;;;;;66.95;32.92;;;-1.30;99.90;;;;;;5013862;28;20065;-34
2022/12/10 01:41:38;;;;;;;72.30;34.75;;;-1.30;99.90;;;;;;5002380;28;20084;-34
2022/12/10 01:44:23;;;;;;;67.07;32.83;;;-1.30;99.90;;;;;;4993032;28;20037;-35
2022/12/10 01:47:00;;;;;;;74.25;35.35;;;-1.20;99.90;;;;;;5037067;28;20039;-34
2022/12/10 01:49:44;;;;;;;73.55;34.50;;;-1.20;99.90;;;;;;5024245;28;20375;-34
2022/12/10 01:52:12;;;;;;;62.75;31.48;;;-1.20;99.90;;;;;;5029860;28;20045;-34
2022/12/10 01:54:42;;;;;;;70.15;33.38;;;-1.20;99.90;;;;;;5021020;28;20030;-34
2022/12/10 01:57:09;;;;;;;70.50;32.60;;;-1.20;99.90;;;;;;4996823;28;20097;-34
2022/12/10 01:59:36;;;;;;;72.95;32.33;;;-1.20;99.90;;;;;;5007374;28;20080;-35
2022/12/10 02:02:17;;;;;;;67.43;33.97;;;-1.20;99.90;;;;;;4996278;28;20030;-34
2022/12/10 02:05:12;;;;;;;69.22;32.53;;;-1.20;99.90;;;;;;5005073;28;20033;-34
2022/12/10 02:07:53;;;;;;;67.75;33.60;;;-1.20;99.90;;;;;;5009700;28;20033;-34
2022/12/10 02:13:08;;;;;;;74.40;33.55;;;-1.20;99.90;;;;;;5162209;27;20396;-34
2022/12/10 02:15:41;;;;;;;66.28;32.08;;;-1.20;99.90;;;;;;5128156;27;20037;-34
2022/12/10 02:18:16;;;;;;;74.32;32.20;;;-1.30;99.90;;;;;;5131426;27;20031;-34
2022/12/10 02:20:46;;;;;;;75.40;34.20;;;-1.30;99.90;;;;;;5113559;27;20031;-34
2022/12/10 02:23:23;;;;;;;69.72;33.05;;;-1.40;99.90;;;;;;5110869;28;20031;-34
2022/12/10 02:26:08;;;;;;;70.40;32.88;;;-1.40;99.90;;;;;;5099290;28;20111;-34
2022/12/10 02:28:36;;;;;;;69.80;33.88;;;-1.50;99.90;;;;;;5116797;27;20039;-34
2022/12/10 02:31:04;;;;;;;72.55;34.03;;;-1.50;99.90;;;;;;5110380;28;20511;-34
2022/12/10 02:33:33;;;;;;;66.38;32.33;;;-1.50;99.90;;;;;;5114905;28;20031;-34
2022/12/10 02:36:00;;;;;;;65.20;31.13;;;-1.60;99.90;;;;;;5112051;28;20031;-34
2022/12/10 02:38:29;;;;;;;74.15;32.67;;;-1.60;99.90;;;;;;5094360;28;20537;-34
2022/12/10 02:41:00;;;;;;;71.43;33.08;;;-1.70;99.90;;;;;;5111231;28;20050;-34
2022/12/10 02:43:28;;;;;;;68.15;32.03;;;-1.70;99.90;;;;;;5111083;28;20104;-33
2022/12/10 02:46:00;;;;;;;74.60;35.00;;;-1.70;99.90;;;;;;5090718;28;20325;-33
2022/12/10 02:48:27;;;;;;;70.32;32.80;;;-1.80;99.90;;;;;;5116695;28;20036;-34
2022/12/10 02:50:53;;;;;;;76.70;35.10;;;-1.80;99.90;;;;;;5109624;28;20039;-33
2022/12/10 02:53:18;;;;;;;74.15;35.50;;;-1.80;99.90;;;;;;5114080;27;20067;-34
2022/12/10 02:56:00;;;;;;;76.82;34.42;;;-1.90;99.90;;;;;;5118156;28;20089;-33
2022/12/10 02:58:41;;;;;;;72.45;34.92;;;-1.90;99.90;;;;;;5110716;28;20054;-34
2022/12/10 03:01:41;;;;;;;77.40;33.92;;;-2.00;99.90;;;;;;5104785;28;20061;-33
2022/12/10 03:04:20;;;;;;;77.35;35.42;;;-2.00;99.90;;;;;;5110297;28;20075;-34
2022/12/10 03:06:52;;;;;;;72.22;34.72;;;-1.90;99.90;;;;;;5104461;28;20036;-33
2022/12/10 03:09:24;;;;;;;76.18;35.70;;;-2.00;99.90;;;;;;5107568;27;20614;-34
2022/12/10 03:11:58;;;;;;;80.65;35.35;;;-2.00;99.90;;;;;;5117811;28;20058;-33
2022/12/10 03:14:32;;;;;;;75.72;34.42;;;-2.00;99.90;;;;;;5105969;28;20503;-33
2022/12/10 03:17:00;;;;;;;78.53;35.03;;;-2.00;99.90;;;;;;5092101;28;20046;-33
2022/12/10 03:19:36;;;;;;;84.20;36.17;;;-2.00;99.90;;;;;;5111458;27;20124;-33
2022/12/10 03:22:05;;;;;;;82.28;35.90;;;-2.00;99.90;;;;;;5111226;28;20118;-33
2022/12/10 03:24:34;;;;;;;83.70;37.65;;;-2.00;99.90;;;;;;5092846;27;20024;-33
2022/12/10 03:26:59;;;;;;;79.95;35.70;;;-2.00;99.90;;;;;;5089906;28;20115;-33
2022/12/10 03:29:33;;;;;;;79.45;35.20;;;-2.00;99.90;;;;;;5096892;28;20185;-33
2022/12/10 03:32:03;;;;;;;82.80;35.08;;;-2.10;99.90;;;;;;5079063;28;20035;-33
2022/12/10 03:34:29;;;;;;;84.88;36.33;;;-2.10;99.90;;;;;;5097972;27;20072;-33
2022/12/10 03:36:55;;;;;;;82.45;35.58;;;-2.10;99.90;;;;;;5100090;28;20122;-33
2022/12/10 03:39:22;;;;;;;83.03;36.53;;;-2.10;99.90;;;;;;5095692;28;20431;-33
2022/12/10 03:41:47;;;;;;;84.82;37.03;;;-2.10;99.90;;;;;;5088147;28;20070;-34
2022/12/10 03:44:25;;;;;;;81.32;36.65;;;-2.10;99.90;;;;;;5094643;28;20047;-34
2022/12/10 03:46:51;;;;;;;71.85;33.92;;;-2.10;99.90;;;;;;5101328;27;20462;-33
2022/12/10 03:49:17;;;;;;;77.88;35.72;;;-2.10;99.90;;;;;;5087612;28;20153;-33
2022/12/10 03:51:46;;;;;;;75.57;35.08;;;-2.20;99.90;;;;;;5089654;28;20039;-34
2022/12/10 03:54:11;;;;;;;77.00;35.42;;;-2.20;99.90;;;;;;5096622;28;20046;-33
2022/12/10 03:56:37;;;;;;;85.85;37.13;;;-2.20;99.90;;;;;;5098509;28;20379;-33
2022/12/10 03:59:03;;;;;;;79.70;34.60;;;-2.30;99.90;;;;;;5095117;28;20040;-34
2022/12/10 04:01:29;;;;;;;90.40;38.33;;;-2.30;99.90;;;;;;5096406;28;20492;-35
2022/12/10 04:03:55;;;;;;;76.05;34.78;;;-2.30;99.90;;;;;;5096068;28;20043;-33
2022/12/10 04:06:21;;;;;;;81.95;35.58;;;-2.30;99.90;;;;;;5107743;27;20044;-32
2022/12/10 04:08:47;;;;;;;81.35;37.75;;;-2.40;99.90;;;;;;5084771;28;20036;-32
2022/12/10 04:11:14;;;;;;;79.88;35.88;;;-2.40;99.90;;;;;;5106669;28;20045;-33
2022/12/10 04:16:28;;;;;;;77.53;35.40;;;-2.40;99.90;;;;;;5113409;28;20040;-32
2022/12/10 04:19:02;;;;;;;84.70;39.60;;;-2.30;99.90;;;;;;5087947;28;20043;-33
2022/12/10 04:27:05;;;;;;;81.97;37.00;;;-2.40;99.90;;;;;;5108403;28;20050;-33
2022/12/10 04:29:31;;;;;;;87.60;39.03;;;-2.40;99.90;;;;;;5085027;28;20040;-32
2022/12/10 04:31:57;;;;;;;89.65;38.05;;;-2.40;99.90;;;;;;5094800;28;20040;-34
2022/12/10 04:34:24;;;;;;;88.88;37.83;;;-2.40;99.90;;;;;;5100359;28;20108;-32
2022/12/10 04:36:50;;;;;;;82.07;36.42;;;-2.50;99.90;;;;;;5095079;28;20093;-33
2022/12/10 04:39:17;;;;;;;84.47;37.90;;;-2.50;99.90;;;;;;5101790;27;20067;-34
2022/12/10 04:41:45;;;;;;;82.82;37.83;;;-2.50;99.90;;;;;;5098702;28;20533;-34
2022/12/10 04:44:11;;;;;;;84.63;35.80;;;-2.50;99.90;;;;;;5087305;28;20036;-34
2022/12/10 04:46:37;;;;;;;84.90;37.33;;;-2.60;99.90;;;;;;5100852;27;20042;-33
2022/12/10 04:49:04;;;;;;;78.68;36.05;;;-2.50;99.90;;;;;;5095296;28;20047;-34
2022/12/10 04:51:30;;;;;;;81.10;34.60;;;-2.60;99.90;;;;;;5107955;27;20080;-33
2022/12/10 04:53:56;;;;;;;81.65;37.58;;;-2.60;99.90;;;;;;5095148;28;20457;-32
2022/12/10 04:56:21;;;;;;;78.53;36.38;;;-2.60;99.90;;;;;;5085473;28;20035;-32
2022/12/10 04:58:48;;;;;;;83.78;34.75;;;-2.60;99.90;;;;;;5093114;28;20038;-36
2022/12/10 05:01:13;;;;;;;85.97;36.42;;;-2.60;99.90;;;;;;5094992;28;20039;-33
2022/12/10 05:03:40;;;;;;;85.13;35.60;;;-2.60;99.90;;;;;;5094716;28;20066;-33
2022/12/10 05:06:08;;;;;;;89.10;38.47;;;-2.60;99.90;;;;;;5100107;28;20040;-34
2022/12/10 05:08:35;;;;;;;90.70;37.00;;;-2.60;99.90;;;;;;5094412;28;20043;-32
2022/12/10 05:11:03;;;;;;;87.72;36.97;;;-2.60;99.90;;;;;;5090934;28;20036;-32
2022/12/10 05:13:29;;;;;;;85.68;37.08;;;-2.60;99.90;;;;;;5087772;28;20039;-33
2022/12/10 05:15:54;;;;;;;88.88;37.53;;;-2.60;99.90;;;;;;5080433;28;20450;-32
2022/12/10 05:18:20;;;;;;;78.82;35.70;;;-2.60;99.90;;;;;;5094688;28;20035;-34
2022/12/10 05:20:46;;;;;;;88.40;37.38;;;-2.60;99.90;;;;;;5094351;28;20071;-33
2022/12/10 05:23:29;;;;;;;83.72;36.90;;;-2.60;99.90;;;;;;5075736;28;20120;-33
2022/12/10 05:26:13;;;;;;;81.70;37.15;;;-2.60;99.90;;;;;;5107228;27;20435;-33
2022/12/10 05:28:40;;;;;;;;;;;-2.60;99.90;;;;;;5086457;28;20040;-33
2022/12/10 05:31:22;;;;;;;81.13;35.88;;;-2.60;99.90;;;;;;5097989;28;20010;-34
2022/12/10 05:33:48;;;;;;;91.45;37.65;;;-2.60;99.90;;;;;;5099277;27;20027;-33
2022/12/10 05:36:17;;;;;;;81.85;35.50;;;-2.60;99.90;;;;;;5097823;28;20067;-32
2022/12/10 05:38:44;;;;;;;90.53;37.25;;;-2.60;99.90;;;;;;5100046;28;20076;-32
2022/12/10 05:41:15;;;;;;;86.70;35.72;;;-2.70;99.90;;;;;;5094355;28;20097;-32
2022/12/10 05:43:42;;;;;;;83.88;35.88;;;-2.60;99.90;;;;;;5095084;28;20031;-32
2022/12/10 05:46:14;;;;;;;85.88;36.25;;;-2.60;99.90;;;;;;5077100;28;20081;-33
2022/12/10 05:48:40;;;;;;;85.57;38.60;;;-2.60;99.90;;;;;;5101064;28;20492;-33
2022/12/10 05:51:12;;;;;;;83.75;37.05;;;-2.60;99.90;;;;;;5094256;28;20052;-33
2022/12/10 05:53:38;;;;;;;90.22;36.05;;;-2.60;99.90;;;;;;5082496;28;20433;-33
2022/12/10 05:56:11;;;;;;;91.05;37.92;;;-2.60;99.90;;;;;;5114886;27;20032;-33
2022/12/10 05:58:38;;;;;;;85.22;37.15;;;-2.60;99.90;;;;;;5091462;28;20032;-31
2022/12/10 06:01:09;;;;;;;83.80;36.97;;;-2.60;99.90;;;;;;5093304;28;20036;-33
2022/12/10 06:03:34;;;;;;;91.30;38.72;;;-2.60;99.90;;;;;;5093948;28;20067;-33
2022/12/10 06:06:00;;;;;;;93.20;39.35;;;-2.60;99.90;;;;;;5085104;28;20044;-33
2022/12/10 06:08:26;;;;;;;83.75;36.65;;;-2.70;99.90;;;;;;5096267;28;20073;-33
2022/12/10 06:10:53;;;;;;;84.55;36.92;;;-2.70;99.90;;;;;;5095550;28;20039;-32
2022/12/10 06:13:19;;;;;;;81.82;35.47;;;-2.70;99.90;;;;;;5093992;28;20151;-32
2022/12/10 06:15:45;;;;;;;82.18;36.88;;;-2.80;99.90;;;;;;5092771;28;20056;-33
2022/12/10 06:18:11;;;;;;;94.35;38.88;;;-2.80;99.90;;;;;;5094264;28;20477;-32
2022/12/10 06:20:38;;;;;;;79.30;36.20;;;-2.80;99.90;;;;;;5099475;28;20036;-33
2022/12/10 06:23:05;;;;;;;82.75;37.13;;;-2.90;99.90;;;;;;5099770;28;20047;-32
2022/12/10 06:25:30;;;;;;;85.30;36.17;;;-2.90;99.90;;;;;;5101562;28;20377;-32
2022/12/10 06:27:56;;;;;;;83.35;36.85;;;-2.90;99.90;;;;;;5090534;28;20101;-32
2022/12/10 06:30:22;;;;;;;92.40;38.40;;;-2.90;99.90;;;;;;5096208;28;20369;-34
2022/12/10 06:32:48;;;;;;;102.75;42.50;;;-2.90;99.90;;;;;;5089095;28;20361;-33
2022/12/10 06:35:14;;;;;;;101.00;47.38;;;-2.90;99.90;;;;;;5096224;28;20480;-34
2022/12/10 06:37:39;;;;;;;96.88;41.47;;;-2.90;99.90;;;;;;5096293;28;20068;-33
2022/12/10 06:40:06;;;;;;;90.18;41.97;;;-2.90;99.90;;;;;;5080078;28;20396;-33
2022/12/10 06:42:32;;;;;;;82.80;36.88;;;-2.90;99.90;;;;;;5093826;28;20488;-33
2022/12/10 06:44:58;;;;;;;97.80;41.08;;;-2.90;99.90;;;;;;5099730;28;20039;-33
2022/12/10 06:47:24;;;;;;;93.93;40.13;;;-2.90;99.90;;;;;;5093060;28;20122;-34
2022/12/10 06:49:50;;;;;;;90.30;38.88;;;-2.90;99.90;;;;;;5095608;28;20499;-34
2022/12/10 06:52:16;;;;;;;88.85;38.60;;;-3.00;99.90;;;;;;5089757;28;20423;-33
2022/12/10 06:54:41;;;;;;;88.90;39.03;;;-3.00;99.90;;;;;;5093968;28;20036;-33
2022/12/10 06:57:07;;;;;;;85.15;37.25;;;-2.90;99.90;;;;;;5093273;28;20039;-34
2022/12/10 06:59:33;;;;;;;83.38;37.22;;;-3.00;99.90;;;;;;5090728;28;20436;-33
2022/12/10 07:01:59;;;;;;;90.65;40.47;;;-3.00;99.90;;;;;;5097427;28;20071;-33
2022/12/10 07:04:25;;;;;;;97.88;40.63;;;-3.00;99.90;;;;;;5092481;28;20044;-33
2022/12/10 07:06:51;;;;;;;98.60;42.20;;;-3.00;99.90;;;;;;5099539;28;20538;-34
2022/12/10 07:09:16;;;;;;;106.45;43.25;;;-3.00;99.90;;;;;;5096686;28;20410;-34
2022/12/10 07:11:42;;;;;;;110.45;42.17;;;-2.90;99.90;;;;;;5082798;28;20046;-33
2022/12/10 07:14:14;;;;;;;103.55;43.03;;;-2.90;99.90;;;;;;5096991;28;20035;-34
2022/12/10 07:16:43;;;;;;;98.13;40.45;;;-2.90;99.90;;;;;;5099771;27;20035;-34
2022/12/10 07:19:11;;;;;;;97.57;40.08;;;-2.90;99.90;;;;;;5100909;28;20032;-34
2022/12/10 07:21:39;;;;;;;106.22;43.28;;;-2.80;99.90;;;;;;5093633;28;20024;-33
2022/12/10 07:24:14;;;;;;;100.60;42.75;;;-2.80;99.90;;;;;;5089525;28;20112;-34
2022/12/10 07:26:42;;;;;;;93.22;40.28;;;-2.80;99.90;;;;;;5097629;28;20039;-33
2022/12/10 07:29:16;;;;;;;92.50;39.92;;;-2.80;99.90;;;;;;5095997;28;20071;-31
2022/12/10 07:31:42;;;;;;;96.53;41.53;;;-2.80;99.90;;;;;;5091290;28;20074;-32
2022/12/10 07:34:09;;;;;;;91.95;40.75;;;-2.80;99.90;;;;;;5081592;28;20040;-33
2022/12/10 07:36:35;;;;;;;103.97;43.50;;;-2.80;99.90;;;;;;5100572;28;20523;-33
2022/12/10 07:39:01;;;;;;;111.35;44.40;;;-2.80;99.90;;;;;;5113552;28;20383;-33
2022/12/10 07:41:27;;;;;;;97.40;42.17;;;-2.70;99.90;;;;;;5099344;27;20039;-34
2022/12/10 07:43:53;;;;;;;100.70;41.40;;;-2.70;99.90;;;;;;5092300;28;20050;-33
2022/12/10 07:46:28;;;;;;;96.20;41.78;;;-2.70;99.90;;;;;;5087357;28;20035;-34
2022/12/10 07:48:54;;;;;;;90.88;39.55;;;-2.60;99.90;;;;;;5090653;28;20039;-34
2022/12/10 07:51:22;;;;;;;102.38;42.70;;;-2.60;99.90;;;;;;5095146;28;20040;-34
2022/12/10 07:53:50;;;;;;;93.55;40.58;;;-2.60;99.90;;;;;;5092300;28;20039;-34
2022/12/10 07:56:16;;;;;;;99.15;45.35;;;-2.60;99.90;;;;;;5103293;28;20063;-33
2022/12/10 07:58:43;;;;;;;101.75;44.88;;;-2.60;99.90;;;;;;5093301;28;20031;-34
2022/12/10 08:01:15;;;;;;;92.25;43.72;;;-2.60;99.90;;;;;;5075448;28;20044;-33
2022/12/10 08:03:41;;;;;;;96.60;44.35;;;-2.60;99.90;;;;;;5107926;28;20100;-33
2022/12/10 08:06:10;;;;;;;105.50;45.30;;;-2.70;99.90;;;;;;5095797;28;20485;-33
2022/12/10 08:08:37;;;;;;;108.75;47.20;;;-2.60;99.90;;;;;;5095204;27;20088;-33
2022/12/10 08:11:04;;;;;;;102.28;43.58;;;-2.60;99.90;;;;;;5089025;28;20477;-32
2022/12/10 08:13:30;;;;;;;102.15;43.75;;;-2.60;99.90;;;;;;5085373;28;20051;-33
2022/12/10 08:16:19;;;;;;;105.68;46.10;;;-2.50;99.90;;;;;;5089458;28;20028;-33
2022/12/10 08:18:47;;;;;;;111.13;44.00;;;-2.60;99.90;;;;;;5091408;28;20062;-31
2022/12/10 08:21:15;;;;;;;97.95;41.17;;;-2.50;99.90;;;;;;5087420;28;20048;-33
2022/12/10 08:23:42;;;;;;;97.32;44.03;;;-2.50;99.90;;;;;;5089547;28;20035;-33
2022/12/10 08:26:11;;;;;;;98.82;42.85;;;-2.40;99.90;;;;;;5089751;28;20027;-34
2022/12/10 08:28:39;;;;;;;95.78;44.05;;;-2.40;99.90;;;;;;5094284;28;20488;-33
2022/12/10 08:31:06;;;;;;;102.03;44.90;;;-2.40;99.90;;;;;;5088812;28;20047;-33
2022/12/10 08:33:36;;;;;;;99.72;43.17;;;-2.30;99.90;;;;;;5086933;28;20114;-34
2022/12/10 08:36:04;;;;;;;98.20;42.72;;;-2.30;99.90;;;;;;5095525;28;20039;-33
2022/12/10 08:38:34;;;;;;;102.32;43.00;;;-2.30;99.90;;;;;;5095489;28;20031;-33
2022/12/10 08:41:07;;;;;;;108.60;41.88;;;-2.20;99.90;;;;;;5094588;28;20390;-33
2022/12/10 08:43:33;;;;;;;92.83;40.30;;;-2.20;99.90;;;;;;5093187;28;20035;-34
2022/12/10 08:45:59;;;;;;;103.15;43.60;;;-2.10;99.90;;;;;;5105542;28;20281;-33
2022/12/10 08:48:25;;;;;;;93.05;41.53;;;-2.10;99.90;;;;;;5094496;28;20046;-33
2022/12/10 08:50:51;;;;;;;93.63;41.55;;;-2.00;99.90;;;;;;5087684;28;20032;-34
2022/12/10 08:53:16;;;;;;;91.82;40.63;;;-2.00;99.90;;;;;;5091094;28;20093;-33
2022/12/10 08:55:42;;;;;;;96.75;43.20;;;-1.90;99.90;;;;;;5088080;28;20111;-33
2022/12/10 08:58:09;;;;;;;96.18;42.67;;;-1.90;99.90;;;;;;5091770;28;20036;-33
2022/12/10 09:00:36;;;;;;;106.47;52.53;;;-1.80;99.90;;;;;;5093588;28;20039;-33
2022/12/10 09:03:02;;;;;;;94.80;46.67;;;-1.80;99.90;;;;;;5101622;28;20039;-33
2022/12/10 09:05:28;;;;;;;93.45;44.78;;;-1.80;99.90;;;;;;5091832;28;20043;-31
2022/12/10 09:07:54;;;;;;;96.55;42.80;;;-1.70;99.90;;;;;;5096038;28;20062;-34
2022/12/10 09:10:23;;;;;;;100.63;41.65;;;-1.60;99.90;;;;;;5078784;28;20043;-34
2022/12/10 09:12:52;;;;;;;88.93;40.63;;;-1.50;99.90;;;;;;5088138;28;20043;-34
2022/12/10 09:15:18;;;;;;;95.35;42.55;;;-1.30;99.90;;;;;;5077913;28;20039;-33
2022/12/10 09:17:44;;;;;;;89.10;41.10;;;-1.20;99.90;;;;;;5081945;28;20063;-34
2022/12/10 09:20:12;;;;;;;91.00;40.08;;;-1.10;99.90;;;;;;5074432;28;20059;-34
2022/12/10 09:22:38;;;;;;;90.30;40.70;;;-1.00;99.90;;;;;;5085781;28;20038;-33
2022/12/10 09:25:06;;;;;;;90.97;41.92;;;-1.00;99.90;;;;;;5079520;28;20040;-33
2022/12/10 09:27:37;;;;;;;109.18;53.40;;;-1.00;99.90;;;;;;5085800;28;20039;-34
2022/12/10 09:30:04;;;;;;;89.15;40.80;;;-0.80;99.90;;;;;;5104362;28;20067;-34
2022/12/10 09:32:30;;;;;;;82.20;39.63;;;-0.50;99.90;;;;;;5075595;28;20036;-35
2022/12/10 09:34:57;;;;;;;88.07;41.67;;;-0.50;99.90;;;;;;5078315;28;20424;-34
2022/12/10 09:37:22;;;;;;;88.40;42.05;;;-0.40;99.90;;;;;;5082937;28;20085;-34
2022/12/10 09:39:48;;;;;;;84.47;39.78;;;-0.30;99.90;;;;;;5084279;28;20430;-34
2022/12/10 09:42:36;;;;;;;88.13;42.53;;;-0.20;99.90;;;;;;5083886;28;20059;-34
2022/12/10 09:45:08;;;;;;;77.40;39.42;;;0.10;99.90;;;;;;5080588;28;20127;-34
2022/12/10 09:47:56;;;;;;;75.30;37.22;;;0.40;99.90;;;;;;5091484;28;20039;-33
2022/12/10 09:50:31;;;;;;;77.68;39.00;;;0.50;99.90;;;;;;5103299;27;20154;-34
2022/12/10 09:52:59;;;;;;;74.45;38.42;;;0.40;99.90;;;;;;5100450;28;20107;-33
2022/12/10 09:55:31;;;;;;;77.03;37.50;;;0.30;99.90;;;;;;5074751;28;20035;-35
2022/12/10 09:57:57;;;;;;;69.65;36.65;;;0.20;99.90;;;;;;5092234;27;20039;-33
2022/12/10 10:00:26;;;;;;;74.47;36.70;;;0.10;99.90;;;;;;5076452;28;20043;-32
2022/12/10 10:02:58;;;;;;;76.38;37.58;;;0.10;99.90;;;;;;5092566;28;20039;-33
2022/12/10 10:05:36;;;;;;;71.18;36.67;;;0.10;99.90;;;;;;5091979;28;20129;-33
2022/12/10 10:08:12;;;;;;;78.32;39.60;;;0.10;99.90;;;;;;5066379;28;20059;-32
2022/12/10 10:10:40;;;;;;;74.03;38.25;;;0.00;99.90;;;;;;5096602;28;20031;-32
2022/12/10 10:13:35;;;;;;;77.30;39.65;;;-0.10;99.90;;;;;;5117735;28;20042;-34
2022/12/10 10:16:25;;;;;;;79.28;39.45;;;-0.20;99.90;;;;;;5101139;28;20086;-38
2022/12/10 10:19:03;;;;;;;89.07;44.67;;;-0.20;99.90;;;;;;5098774;28;20496;-36
2022/12/10 10:21:39;;;;;;;80.75;40.55;;;-0.20;99.90;;;;;;5105057;28;20050;-35
2022/12/10 10:24:10;;;;;;;85.20;43.20;;;-0.30;99.90;;;;;;5089179;28;20051;-36
2022/12/10 10:26:39;;;;;;;87.65;42.70;;;-0.30;99.90;;;;;;5092666;28;20040;-35
2022/12/10 10:29:08;;;;;;;98.00;50.97;;;-0.30;99.90;;;;;;5076392;28;20036;-35
2022/12/10 10:31:37;;;;;;;76.35;41.00;;;-0.40;99.90;;;;;;5092119;28;20124;-36
2022/12/10 10:34:13;;;;;;;90.93;46.67;;;-0.40;99.90;;;;;;5083811;28;20038;-36
2022/12/10 10:36:39;;;;;;;77.65;38.22;;;-0.50;99.90;;;;;;5106940;28;20034;-36
2022/12/10 10:39:11;;;;;;;78.75;39.65;;;-0.50;99.90;;;;;;5091592;28;20079;-36
2022/12/10 10:41:39;;;;;;;81.20;38.60;;;-0.50;99.90;;;;;;5098935;28;20039;-35
2022/12/10 10:44:18;;;;;;;78.05;37.45;;;-0.50;99.90;;;;;;5091533;28;20516;-38
2022/12/10 10:46:47;;;;;;;81.45;38.92;;;-0.50;99.90;;;;;;5097548;27;20035;-35
2022/12/10 10:49:25;;;;;;;72.80;34.95;;;-0.50;99.90;;;;;;5094862;28;20046;-36
2022/12/10 10:52:06;;;;;;;78.47;36.40;;;-0.60;99.90;;;;;;5091057;28;20047;-35
2022/12/10 10:54:36;;;;;;;74.05;34.65;;;-0.60;99.90;;;;;;5101393;27;20064;-36
2022/12/10 10:57:25;;;;;;;80.15;35.58;;;-0.60;99.90;;;;;;5076849;28;20040;-36
2022/12/10 11:00:01;;;;;;;75.30;34.85;;;-0.70;99.90;;;;;;5098532;28;20031;-35
2022/12/10 11:02:35;;;;;;;78.45;36.50;;;-0.70;99.90;;;;;;5095543;28;20096;-36
2022/12/10 11:05:17;;;;;;;84.50;36.50;;;-0.70;99.90;;;;;;5094371;28;20100;-36
2022/12/10 11:07:43;;;;;;;76.63;35.88;;;-0.80;99.90;;;;;;5094441;28;20503;-36
2022/12/10 11:10:20;;;;;;;83.00;37.33;;;-0.70;99.90;;;;;;5095436;28;20069;-36
2022/12/10 11:12:55;;;;;;;78.50;35.38;;;-0.70;99.90;;;;;;5108488;28;20085;-36
2022/12/10 11:15:24;;;;;;;84.28;37.80;;;-0.80;99.90;;;;;;5101491;27;20096;-36
2022/12/10 11:17:54;;;;;;;80.88;36.30;;;-0.80;99.90;;;;;;5090047;28;20032;-36
2022/12/10 11:20:34;;;;;;;83.13;36.70;;;-0.70;99.90;;;;;;5102660;27;20120;-36
2022/12/10 11:23:09;;;;;;;84.22;38.17;;;-0.70;99.90;;;;;;5096464;28;20032;-36
2022/12/10 11:26:05;;;;;;;86.13;38.13;;;-0.60;99.90;;;;;;5092573;28;20048;-36
2022/12/10 11:28:59;;;;;;;86.03;37.97;;;-0.60;99.90;;;;;;5099123;27;20481;-36
2022/12/10 11:31:27;;;;;;;83.15;38.95;;;-0.60;99.90;;;;;;5101683;28;20080;-36
2022/12/10 11:34:12;;;;;;;87.47;39.13;;;-0.60;99.90;;;;;;5091715;28;20048;-36
2022/12/10 11:37:00;;;;;;;92.28;38.15;;;-0.60;99.90;;;;;;5095791;28;20046;-36
2022/12/10 11:39:33;;;;;;;91.57;38.78;;;-0.60;99.90;;;;;;5081021;28;20031;-36
2022/12/10 11:42:17;;;;;;;90.10;40.15;;;-0.60;99.90;;;;;;5086589;28;20067;-36
2022/12/10 11:45:01;;;;;;;86.68;39.00;;;-0.60;99.90;;;;;;5076420;27;20504;-37
2022/12/10 11:48:08;;;;;;;94.30;41.72;;;-0.60;99.90;;;;;;5103447;27;20128;-36
2022/12/10 11:50:51;;;;;;;88.13;41.03;;;-0.70;99.90;;;;;;5080428;27;20047;-37
2022/12/10 11:53:32;;;;;;;96.13;40.00;;;-0.70;99.90;;;;;;5100700;28;20113;-37
2022/12/10 11:56:24;;;;;;;97.30;40.85;;;-0.70;99.90;;;;;;5076859;28;20134;-37
2022/12/10 11:58:59;;;;;;;98.50;40.63;;;-0.70;99.90;;;;;;5089165;27;20028;-37
2022/12/10 12:01:52;;;;;;;91.97;38.67;;;-0.70;99.90;;;;;;5121243;27;20583;-36
2022/12/10 12:04:21;;;;;;;89.70;38.25;;;-0.60;99.90;;;;;;5095717;28;20066;-36
2022/12/10 12:06:48;;;;;;;89.88;39.88;;;-0.60;99.90;;;;;;5074088;28;20032;-37
2022/12/10 12:09:38;;;;;;;100.55;40.85;;;-0.60;99.90;;;;;;5100753;28;20039;-37
2022/12/10 12:12:27;;;;;;;107.32;43.47;;;-0.60;99.90;;;;;;5099089;27;20491;-36
2022/12/10 12:15:25;;;;;;;89.75;41.28;;;-0.60;99.90;;;;;;5076761;28;20049;-36
2022/12/10 12:18:01;;;;;;;88.85;37.40;;;-0.60;99.90;;;;;;5078496;28;20085;-36
2022/12/10 12:20:54;;;;;;;86.07;39.17;;;-0.50;99.90;;;;;;5080008;28;20036;-37
2022/12/10 12:23:54;;;;;;;91.68;40.28;;;-0.50;99.90;;;;;;5082982;28;20134;-36
2022/12/10 12:26:28;;;;;;;88.93;39.72;;;-0.50;99.90;;;;;;5066186;28;20051;-37
2022/12/10 12:29:12;;;;;;;87.50;40.85;;;-0.40;99.90;;;;;;5066991;28;20040;-36
2022/12/10 12:31:45;;;;;;;89.90;40.40;;;-0.40;99.90;;;;;;5084206;28;20035;-36
2022/12/10 12:34:34;;;;;;;93.75;41.20;;;-0.30;99.90;;;;;;5071527;28;20040;-37
2022/12/10 12:37:01;;;;;;;88.68;39.78;;;-0.30;99.90;;;;;;5071305;28;20043;-37
2022/12/10 12:39:36;;;;;;;94.80;41.97;;;-0.30;99.90;;;;;;5065696;28;20039;-37
2022/12/10 12:42:23;;;;;;;88.13;40.47;;;-0.30;99.90;;;;;;5087270;28;20488;-37
2022/12/10 12:45:24;;;;;;;85.85;37.00;;;-0.30;99.90;;;;;;5089126;28;21209;-36
2022/12/10 12:48:02;;;;;;;76.85;37.35;;;-0.30;99.90;;;;;;5090339;28;20038;-37
2022/12/10 12:50:51;;;;;;;75.50;36.53;;;-0.30;99.90;;;;;;5097018;28;20554;-37
2022/12/10 12:53:20;;;;;;;72.88;35.00;;;-0.30;99.90;;;;;;5091990;28;20036;-37
2022/12/10 12:56:09;;;;;;;68.60;33.75;;;-0.20;99.90;;;;;;5092792;28;20319;-36